sensor_id;sensor_type;location;lat;lon;timestamp;pressure;altitude;pressure_sealevel;temperature;humidity
10638;BME280;47007;49.252;8.904;2024-03-08T00:00:14;99803.63;;;5.73;100.00
10638;BME280;47007;49.252;8.904;2024-03-08T00:00:58;99773.97;;;5.63;100.00
10638;BME280;47007;49.252;8.904;2024-03-08T00:01:40;99794.16;;;5.81;100.00
10638;BME280;47007;49.252;8.904;2024-03-08T00:02:22;99780.72;;;5.66;100.00
10638;BME280;47007;49.252;8.904;2024-03-08T00:03:04;99789.09;;;5.69;100.00
10638;BME280;47007;49.252;8.904;2024-03-08T00:03:46;99798.19;;;5.75;100.00
10638;BME280;47007;49.252;8.904;2024-03-08T00:04:28;99795.88;;;5.72;100.00
10638;BME280;47007;49.252;8.904;2024-03-08T00:05:10;99793.78;;;5.75;100.00
10638;BME280;47007;49.252;8.904;2024-03-08T00:05:52;99781.56;;;5.66;100.00
10638;BME280;47007;49.252;8.904;2024-03-08T00:06:34;99783.84;;;5.69;100.00
10638;BME280;47007;49.252;8.904;2024-03-08T00:07:16;99777.25;;;5.65;100.00
10638;BME280;47007;49.252;8.904;2024-03-08T00:07:58;99787.94;;;5.64;100.00
10638;BME280;47007;49.252;8.904;2024-03-08T00:08:41;99795.03;;;5.71;100.00
10638;BME280;47007;49.252;8.904;2024-03-08T00:09:23;99778.91;;;5.66;100.00
10638;BME280;47007;49.252;8.904;2024-03-08T00:10:10;99784.22;;;5.74;100.00
10638;BME280;47007;49.252;8.904;2024-03-08T00:10:56;99779.59;;;5.68;100.00
10638;BME280;47007;49.252;8.904;2024-03-08T00:11:38;99784.47;;;5.63;100.00
10638;BME280;47007;49.252;8.904;2024-03-08T00:12:20;99773.13;;;5.63;100.00
10638;BME280;47007;49.252;8.904;2024-03-08T00:13:02;99758.78;;;5.57;100.00
10638;BME280;47007;49.252;8.904;2024-03-08T00:13:45;99791.28;;;5.74;100.00
10638;BME280;47007;49.252;8.904;2024-03-08T00:14:28;99754.97;;;5.52;100.00
10638;BME280;47007;49.252;8.904;2024-03-08T00:15:14;99796.25;;;5.77;100.00
10638;BME280;47007;49.252;8.904;2024-03-08T00:15:58;99787.94;;;5.64;100.00
10638;BME280;47007;49.252;8.904;2024-03-08T00:16:39;99783.66;;;5.63;100.00
10638;BME280;47007;49.252;8.904;2024-03-08T00:17:25;99767.72;;;5.47;100.00
10638;BME280;47007;49.252;8.904;2024-03-08T00:18:06;99776.97;;;5.51;100.00
10638;BME280;47007;49.252;8.904;2024-03-08T00:18:49;99781.78;;;5.55;100.00
10638;BME280;47007;49.252;8.904;2024-03-08T00:19:31;99757.31;;;5.37;100.00
10638;BME280;47007;49.252;8.904;2024-03-08T00:20:13;99749.56;;;5.35;100.00
10638;BME280;47007;49.252;8.904;2024-03-08T00:20:55;99763.59;;;5.44;100.00
10638;BME280;47007;49.252;8.904;2024-03-08T00:21:38;99756.72;;;5.43;100.00
10638;BME280;47007;49.252;8.904;2024-03-08T00:22:19;99782.63;;;5.56;100.00
10638;BME280;47007;49.252;8.904;2024-03-08T00:23:01;99777.50;;;5.54;100.00
10638;BME280;47007;49.252;8.904;2024-03-08T00:23:43;99779.06;;;5.47;100.00
10638;BME280;47007;49.252;8.904;2024-03-08T00:24:25;99787.63;;;5.49;100.00
10638;BME280;47007;49.252;8.904;2024-03-08T00:25:07;99777.91;;;5.41;100.00
10638;BME280;47007;49.252;8.904;2024-03-08T00:25:53;99781.63;;;5.39;100.00
10638;BME280;47007;49.252;8.904;2024-03-08T00:26:36;99778.34;;;5.37;100.00
10638;BME280;47007;49.252;8.904;2024-03-08T00:27:18;99782.63;;;5.38;100.00
10638;BME280;47007;49.252;8.904;2024-03-08T00:28:03;99777.06;;;5.41;100.00
10638;BME280;47007;49.252;8.904;2024-03-08T00:28:46;99769.47;;;5.38;100.00
10638;BME280;47007;49.252;8.904;2024-03-08T00:29:28;99752.13;;;5.27;100.00
10638;BME280;47007;49.252;8.904;2024-03-08T00:30:10;99767.00;;;5.36;100.00
10638;BME280;47007;49.252;8.904;2024-03-08T00:30:55;99741.56;;;5.19;100.00
10638;BME280;47007;49.252;8.904;2024-03-08T00:31:37;99783.44;;;5.38;100.00
10638;BME280;47007;49.252;8.904;2024-03-08T00:32:19;99775.41;;;5.40;100.00
10638;BME280;47007;49.252;8.904;2024-03-08T00:33:00;99776.09;;;5.42;100.00
10638;BME280;47007;49.252;8.904;2024-03-08T00:33:43;99774.59;;;5.39;100.00
10638;BME280;47007;49.252;8.904;2024-03-08T00:34:25;99770.97;;;5.40;100.00
10638;BME280;47007;49.252;8.904;2024-03-08T00:35:07;99771.34;;;5.46;100.00
10638;BME280;47007;49.252;8.904;2024-03-08T00:35:49;99777.41;;;5.46;100.00
10638;BME280;47007;49.252;8.904;2024-03-08T00:36:31;99764.75;;;5.24;100.00
10638;BME280;47007;49.252;8.904;2024-03-08T00:37:13;99744.25;;;5.10;100.00
10638;BME280;47007;49.252;8.904;2024-03-08T00:37:55;99769.03;;;5.25;100.00
10638;BME280;47007;49.252;8.904;2024-03-08T00:38:38;99771.50;;;5.26;100.00
10638;BME280;47007;49.252;8.904;2024-03-08T00:39:20;99761.97;;;5.25;100.00
10638;BME280;47007;49.252;8.904;2024-03-08T00:40:02;99764.59;;;5.25;100.00
10638;BME280;47007;49.252;8.904;2024-03-08T00:40:45;99750.94;;;5.22;100.00
10638;BME280;47007;49.252;8.904;2024-03-08T00:41:27;99753.41;;;5.23;100.00
10638;BME280;47007;49.252;8.904;2024-03-08T00:42:09;99763.19;;;5.31;100.00
10638;BME280;47007;49.252;8.904;2024-03-08T00:42:50;99750.34;;;5.28;100.00
10638;BME280;47007;49.252;8.904;2024-03-08T00:43:34;99752.13;;;5.27;100.00
10638;BME280;47007;49.252;8.904;2024-03-08T00:44:16;99766.63;;;5.31;100.00
10638;BME280;47007;49.252;8.904;2024-03-08T00:44:58;99767.63;;;5.30;100.00
10638;BME280;47007;49.252;8.904;2024-03-08T00:45:40;99737.59;;;5.15;100.00
10638;BME280;47007;49.252;8.904;2024-03-08T00:46:24;99758.06;;;5.29;100.00
10638;BME280;47007;49.252;8.904;2024-03-08T00:47:06;99764.75;;;5.24;100.00
10638;BME280;47007;49.252;8.904;2024-03-08T00:47:47;99757.16;;;5.21;100.00
10638;BME280;47007;49.252;8.904;2024-03-08T00:48:29;99739.81;;;5.10;100.00
10638;BME280;47007;49.252;8.904;2024-03-08T00:49:12;99734.72;;;5.09;100.00
10638;BME280;47007;49.252;8.904;2024-03-08T00:49:54;99742.00;;;5.15;100.00
10638;BME280;47007;49.252;8.904;2024-03-08T00:50:38;99762.66;;;5.27;100.00
10638;BME280;47007;49.252;8.904;2024-03-08T00:51:20;99747.56;;;5.12;100.00
10638;BME280;47007;49.252;8.904;2024-03-08T00:52:02;99762.78;;;5.08;100.00
10638;BME280;47007;49.252;8.904;2024-03-08T00:52:44;99760.63;;;5.03;100.00
10638;BME280;47007;49.252;8.904;2024-03-08T00:53:25;99768.66;;;5.02;100.00
10638;BME280;47007;49.252;8.904;2024-03-08T00:54:07;99760.97;;;4.91;100.00
10638;BME280;47007;49.252;8.904;2024-03-08T00:54:49;99760.06;;;4.82;100.00
10638;BME280;47007;49.252;8.904;2024-03-08T00:55:31;99761.06;;;4.81;100.00
10638;BME280;47007;49.252;8.904;2024-03-08T00:56:13;99754.88;;;4.73;100.00
10638;BME280;47007;49.252;8.904;2024-03-08T00:56:55;99746.47;;;4.69;100.00
10638;BME280;47007;49.252;8.904;2024-03-08T00:57:37;99755.00;;;4.71;100.00
10638;BME280;47007;49.252;8.904;2024-03-08T00:58:20;99738.50;;;4.61;100.00
10638;BME280;47007;49.252;8.904;2024-03-08T00:59:02;99744.13;;;4.66;100.00
10638;BME280;47007;49.252;8.904;2024-03-08T00:59:44;99740.16;;;4.62;100.00
10638;BME280;47007;49.252;8.904;2024-03-08T01:00:25;99739.31;;;4.61;100.00
10638;BME280;47007;49.252;8.904;2024-03-08T01:01:08;99757.50;;;4.73;100.00
10638;BME280;47007;49.252;8.904;2024-03-08T01:01:51;99751.88;;;4.67;100.00
10638;BME280;47007;49.252;8.904;2024-03-08T01:02:33;99746.16;;;4.72;100.00
10638;BME280;47007;49.252;8.904;2024-03-08T01:03:17;99752.16;;;4.82;100.00
10638;BME280;47007;49.252;8.904;2024-03-08T01:03:59;99725.16;;;4.72;100.00
10638;BME280;47007;49.252;8.904;2024-03-08T01:04:40;99728.72;;;4.81;100.00
10638;BME280;47007;49.252;8.904;2024-03-08T01:05:23;99750.19;;;4.94;100.00
10638;BME280;47007;49.252;8.904;2024-03-08T01:06:06;99745.91;;;4.93;100.00
10638;BME280;47007;49.252;8.904;2024-03-08T01:06:48;99743.28;;;4.93;100.00
10638;BME280;47007;49.252;8.904;2024-03-08T01:07:29;99702.97;;;4.66;100.00
10638;BME280;47007;49.252;8.904;2024-03-08T01:08:12;99745.75;;;4.94;100.00
10638;BME280;47007;49.252;8.904;2024-03-08T01:08:53;99754.28;;;4.96;100.00
10638;BME280;47007;49.252;8.904;2024-03-08T01:09:35;99740.66;;;4.93;100.00
10638;BME280;47007;49.252;8.904;2024-03-08T01:10:17;99751.16;;;4.93;100.00
10638;BME280;47007;49.252;8.904;2024-03-08T01:10:59;99739.16;;;4.90;100.00
10638;BME280;47007;49.252;8.904;2024-03-08T01:11:41;99732.53;;;4.86;100.00
10638;BME280;47007;49.252;8.904;2024-03-08T01:12:23;99741.31;;;4.95;100.00
10638;BME280;47007;49.252;8.904;2024-03-08T01:13:05;99736.88;;;4.95;100.00
10638;BME280;47007;49.252;8.904;2024-03-08T01:13:47;99750.94;;;5.04;100.00
10638;BME280;47007;49.252;8.904;2024-03-08T01:14:29;99730.06;;;5.02;100.00
10638;BME280;47007;49.252;8.904;2024-03-08T01:15:12;99744.94;;;5.12;100.00
10638;BME280;47007;49.252;8.904;2024-03-08T01:15:54;99736.22;;;5.11;100.00
10638;BME280;47007;49.252;8.904;2024-03-08T01:16:36;99732.09;;;5.09;100.00
10638;BME280;47007;49.252;8.904;2024-03-08T01:17:18;99739.81;;;5.10;100.00
10638;BME280;47007;49.252;8.904;2024-03-08T01:17:59;99713.94;;;4.97;100.00
10638;BME280;47007;49.252;8.904;2024-03-08T01:18:43;99743.50;;;5.17;100.00
10638;BME280;47007;49.252;8.904;2024-03-08T01:19:25;99733.31;;;5.14;100.00
10638;BME280;47007;49.252;8.904;2024-03-08T01:20:07;99745.16;;;5.18;100.00
10638;BME280;47007;49.252;8.904;2024-03-08T01:20:52;99741.72;;;5.18;100.00
10638;BME280;47007;49.252;8.904;2024-03-08T01:21:34;99732.63;;;5.12;100.00
10638;BME280;47007;49.252;8.904;2024-03-08T01:22:16;99738.84;;;5.11;100.00
10638;BME280;47007;49.252;8.904;2024-03-08T01:22:58;99717.03;;;4.93;100.00
10638;BME280;47007;49.252;8.904;2024-03-08T01:23:40;99724.81;;;5.02;100.00
10638;BME280;47007;49.252;8.904;2024-03-08T01:24:21;99736.97;;;5.03;100.00
10638;BME280;47007;49.252;8.904;2024-03-08T01:25:03;99719.94;;;4.90;100.00
10638;BME280;47007;49.252;8.904;2024-03-08T01:25:46;99717.31;;;4.90;100.00
10638;BME280;47007;49.252;8.904;2024-03-08T01:26:28;99724.22;;;4.91;100.00
10638;BME280;47007;49.252;8.904;2024-03-08T01:27:10;99734.66;;;5.00;100.00
10638;BME280;47007;49.252;8.904;2024-03-08T01:27:53;99731.88;;;5.02;100.00
10638;BME280;47007;49.252;8.904;2024-03-08T01:28:36;99723.94;;;4.94;100.00
10638;BME280;47007;49.252;8.904;2024-03-08T01:29:18;99721.44;;;4.92;100.00
10638;BME280;47007;49.252;8.904;2024-03-08T01:29:59;99722.28;;;4.93;100.00
10638;BME280;47007;49.252;8.904;2024-03-08T01:30:41;99729.81;;;4.96;100.00
10638;BME280;47007;49.252;8.904;2024-03-08T01:31:24;99703.09;;;4.83;100.00
10638;BME280;47007;49.252;8.904;2024-03-08T01:32:06;99718.00;;;4.92;100.00
10638;BME280;47007;49.252;8.904;2024-03-08T01:32:48;99729.31;;;4.92;100.00
10638;BME280;47007;49.252;8.904;2024-03-08T01:33:30;99721.06;;;4.87;100.00
10638;BME280;47007;49.252;8.904;2024-03-08T01:34:13;99720.97;;;4.79;100.00
10638;BME280;47007;49.252;8.904;2024-03-08T01:34:55;99720.97;;;4.79;100.00
10638;BME280;47007;49.252;8.904;2024-03-08T01:35:36;99724.13;;;4.83;100.00
10638;BME280;47007;49.252;8.904;2024-03-08T01:36:18;99705.81;;;4.73;100.00
10638;BME280;47007;49.252;8.904;2024-03-08T01:37:01;99720.84;;;4.81;100.00
10638;BME280;47007;49.252;8.904;2024-03-08T01:37:42;99713.47;;;4.66;100.00
10638;BME280;47007;49.252;8.904;2024-03-08T01:38:24;99692.34;;;4.58;100.00
10638;BME280;47007;49.252;8.904;2024-03-08T01:39:06;99713.00;;;4.71;100.00
10638;BME280;47007;49.252;8.904;2024-03-08T01:39:49;99723.38;;;4.73;100.00
10638;BME280;47007;49.252;8.904;2024-03-08T01:40:31;99713.69;;;4.73;100.00
10638;BME280;47007;49.252;8.904;2024-03-08T01:41:13;99713.53;;;4.75;100.00
10638;BME280;47007;49.252;8.904;2024-03-08T01:41:55;99710.09;;;4.74;100.00
10638;BME280;47007;49.252;8.904;2024-03-08T01:42:39;99688.88;;;4.67;100.00
10638;BME280;47007;49.252;8.904;2024-03-08T01:43:28;99665.59;;;4.55;100.00
10638;BME280;47007;49.252;8.904;2024-03-08T01:44:10;99710.34;;;4.81;100.00
10638;BME280;47007;49.252;8.904;2024-03-08T01:44:52;99711.00;;;4.83;100.00
10638;BME280;47007;49.252;8.904;2024-03-08T01:45:34;99704.75;;;4.84;100.00
10638;BME280;47007;49.252;8.904;2024-03-08T01:46:18;99694.81;;;4.69;100.00
10638;BME280;47007;49.252;8.904;2024-03-08T01:47:00;99683.63;;;4.67;100.00
10638;BME280;47007;49.252;8.904;2024-03-08T01:47:43;99701.31;;;4.83;100.00
10638;BME280;47007;49.252;8.904;2024-03-08T01:48:25;99707.53;;;4.82;100.00
10638;BME280;47007;49.252;8.904;2024-03-08T01:49:08;99704.25;;;4.80;100.00
10638;BME280;47007;49.252;8.904;2024-03-08T01:49:50;99702.47;;;4.81;100.00
10638;BME280;47007;49.252;8.904;2024-03-08T01:50:32;99699.97;;;4.79;100.00
10638;BME280;47007;49.252;8.904;2024-03-08T01:51:14;99699.59;;;4.74;100.00
10638;BME280;47007;49.252;8.904;2024-03-08T01:51:57;99705.66;;;4.75;100.00
10638;BME280;47007;49.252;8.904;2024-03-08T01:52:38;99698.41;;;4.68;100.00
10638;BME280;47007;49.252;8.904;2024-03-08T01:53:20;99694.25;;;4.66;100.00
10638;BME280;47007;49.252;8.904;2024-03-08T01:54:03;99694.47;;;4.73;100.00
10638;BME280;47007;49.252;8.904;2024-03-08T01:54:45;99702.50;;;4.71;100.00
10638;BME280;47007;49.252;8.904;2024-03-08T01:55:27;99667.84;;;4.50;100.00
10638;BME280;47007;49.252;8.904;2024-03-08T01:56:09;99688.63;;;4.61;100.00
10638;BME280;47007;49.252;8.904;2024-03-08T01:56:51;99701.38;;;4.74;100.00
10638;BME280;47007;49.252;8.904;2024-03-08T01:57:35;99702.22;;;4.74;100.00
10638;BME280;47007;49.252;8.904;2024-03-08T01:58:17;99703.31;;;4.72;100.00
10638;BME280;47007;49.252;8.904;2024-03-08T01:59:04;99698.22;;;4.70;100.00
10638;BME280;47007;49.252;8.904;2024-03-08T01:59:47;99691.34;;;4.69;100.00
10638;BME280;47007;49.252;8.904;2024-03-08T02:00:30;99701.69;;;4.70;100.00
10638;BME280;47007;49.252;8.904;2024-03-08T02:01:13;99693.97;;;4.69;100.00
10638;BME280;47007;49.252;8.904;2024-03-08T02:02:01;99690.41;;;4.60;100.00
10638;BME280;47007;49.252;8.904;2024-03-08T02:02:43;99703.13;;;4.65;100.00
10638;BME280;47007;49.252;8.904;2024-03-08T02:03:28;99690.41;;;4.60;100.00
10638;BME280;47007;49.252;8.904;2024-03-08T02:04:09;99692.22;;;4.60;100.00
10638;BME280;47007;49.252;8.904;2024-03-08T02:04:51;99688.19;;;4.65;100.00
10638;BME280;47007;49.252;8.904;2024-03-08T02:05:35;99655.97;;;4.46;100.00
10638;BME280;47007;49.252;8.904;2024-03-08T02:06:17;99666.31;;;4.47;100.00
10638;BME280;47007;49.252;8.904;2024-03-08T02:06:59;99690.75;;;4.57;100.00
10638;BME280;47007;49.252;8.904;2024-03-08T02:07:42;99653.28;;;4.38;100.00
10638;BME280;47007;49.252;8.904;2024-03-08T02:08:26;99653.06;;;4.31;100.00
10638;BME280;47007;49.252;8.904;2024-03-08T02:09:08;99681.38;;;4.45;100.00
10638;BME280;47007;49.252;8.904;2024-03-08T02:09:50;99661.75;;;4.31;100.00
10638;BME280;47007;49.252;8.904;2024-03-08T02:10:33;99652.09;;;4.32;100.00
10638;BME280;47007;49.252;8.904;2024-03-08T02:11:15;99666.81;;;4.33;100.00
10638;BME280;47007;49.252;8.904;2024-03-08T02:11:57;99671.22;;;4.42;100.00
10638;BME280;47007;49.252;8.904;2024-03-08T02:12:46;99667.91;;;4.40;100.00
10638;BME280;47007;49.252;8.904;2024-03-08T02:13:28;99678.25;;;4.42;100.00
10638;BME280;47007;49.252;8.904;2024-03-08T02:14:10;99680.88;;;4.42;100.00
10638;BME280;47007;49.252;8.904;2024-03-08T02:14:53;99667.91;;;4.40;100.00
10638;BME280;47007;49.252;8.904;2024-03-08T02:15:58;99673.16;;;4.40;100.00
10638;BME280;47007;49.252;8.904;2024-03-08T02:16:41;99672.75;;;4.35;100.00
10638;BME280;47007;49.252;8.904;2024-03-08T02:17:22;99672.47;;;4.38;100.00
10638;BME280;47007;49.252;8.904;2024-03-08T02:18:04;99679.22;;;4.41;100.00
10638;BME280;47007;49.252;8.904;2024-03-08T02:18:46;99645.22;;;4.21;100.00
10638;BME280;47007;49.252;8.904;2024-03-08T02:19:28;99669.56;;;4.41;100.00
10638;BME280;47007;49.252;8.904;2024-03-08T02:20:10;99666.16;;;4.31;100.00
10638;BME280;47007;49.252;8.904;2024-03-08T02:20:55;99654.72;;;4.32;100.00
10638;BME280;47007;49.252;8.904;2024-03-08T02:21:37;99671.22;;;4.42;100.00
10638;BME280;47007;49.252;8.904;2024-03-08T02:22:19;99667.06;;;4.40;100.00
10638;BME280;47007;49.252;8.904;2024-03-08T02:23:01;99670.13;;;4.35;100.00
10638;BME280;47007;49.252;8.904;2024-03-08T02:23:44;99670.28;;;4.33;100.00
10638;BME280;47007;49.252;8.904;2024-03-08T02:24:26;99670.13;;;4.35;100.00
10638;BME280;47007;49.252;8.904;2024-03-08T02:25:08;99656.31;;;4.33;100.00
10638;BME280;47007;49.252;8.904;2024-03-08T02:25:51;99671.50;;;4.39;100.00
10638;BME280;47007;49.252;8.904;2024-03-08T02:26:32;99670.81;;;4.37;100.00
10638;BME280;47007;49.252;8.904;2024-03-08T02:27:15;99672.47;;;4.38;100.00
10638;BME280;47007;49.252;8.904;2024-03-08T02:27:58;99674.56;;;4.34;100.00
10638;BME280;47007;49.252;8.904;2024-03-08T02:28:40;99660.53;;;4.26;100.00
10638;BME280;47007;49.252;8.904;2024-03-08T02:29:24;99670.81;;;4.37;100.00
10638;BME280;47007;49.252;8.904;2024-03-08T02:30:06;99666.25;;;4.39;100.00
10638;BME280;47007;49.252;8.904;2024-03-08T02:30:49;99648.66;;;4.22;100.00
10638;BME280;47007;49.252;8.904;2024-03-08T02:31:39;99667.00;;;4.31;100.00
10638;BME280;47007;49.252;8.904;2024-03-08T02:32:21;99655.56;;;4.23;100.00
10638;BME280;47007;49.252;8.904;2024-03-08T02:33:02;99657.75;;;4.27;100.00
10638;BME280;47007;49.252;8.904;2024-03-08T02:33:45;99666.75;;;4.25;100.00
10638;BME280;47007;49.252;8.904;2024-03-08T02:34:29;99659.56;;;4.27;100.00
10638;BME280;47007;49.252;8.904;2024-03-08T02:35:13;99634.09;;;4.10;100.00
10638;BME280;47007;49.252;8.904;2024-03-08T02:35:54;99635.91;;;4.09;100.00
10638;BME280;47007;49.252;8.904;2024-03-08T02:36:37;99640.72;;;4.14;100.00
10638;BME280;47007;49.252;8.904;2024-03-08T02:37:19;99666.59;;;4.26;100.00
10638;BME280;47007;49.252;8.904;2024-03-08T02:38:02;99632.16;;;4.12;100.00
10638;BME280;47007;49.252;8.904;2024-03-08T02:38:45;99634.25;;;4.08;100.00
10638;BME280;47007;49.252;8.904;2024-03-08T02:39:26;99662.19;;;4.27;100.00
10638;BME280;47007;49.252;8.904;2024-03-08T02:40:09;99656.09;;;4.26;100.00
10638;BME280;47007;49.252;8.904;2024-03-08T02:40:54;99648.16;;;4.18;100.00
10638;BME280;47007;49.252;8.904;2024-03-08T02:41:36;99648.59;;;4.14;100.00
10638;BME280;47007;49.252;8.904;2024-03-08T02:42:18;99634.94;;;4.10;100.00
10638;BME280;47007;49.252;8.904;2024-03-08T02:43:00;99664.53;;;4.20;100.00
10638;BME280;47007;49.252;8.904;2024-03-08T02:43:42;99656.53;;;4.22;100.00
10638;BME280;47007;49.252;8.904;2024-03-08T02:44:24;99648.16;;;4.18;100.00
10638;BME280;47007;49.252;8.904;2024-03-08T02:45:06;99655.00;;;4.29;100.00
10638;BME280;47007;49.252;8.904;2024-03-08T02:45:48;99634.50;;;4.15;100.00
10638;BME280;47007;49.252;8.904;2024-03-08T02:46:31;99656.25;;;4.25;100.00
10638;BME280;47007;49.252;8.904;2024-03-08T02:47:13;99646.66;;;4.16;100.00
10638;BME280;47007;49.252;8.904;2024-03-08T02:47:54;99631.03;;;4.14;100.00
10638;BME280;47007;49.252;8.904;2024-03-08T02:48:37;99640.84;;;4.12;100.00
10638;BME280;47007;49.252;8.904;2024-03-08T02:49:19;99650.63;;;4.20;100.00
10638;BME280;47007;49.252;8.904;2024-03-08T02:50:01;99653.25;;;4.20;100.00
10638;BME280;47007;49.252;8.904;2024-03-08T02:50:43;99647.31;;;4.18;100.00
10638;BME280;47007;49.252;8.904;2024-03-08T02:51:26;99654.88;;;4.21;100.00
10638;BME280;47007;49.252;8.904;2024-03-08T02:52:08;99654.06;;;4.20;100.00
10638;BME280;47007;49.252;8.904;2024-03-08T02:52:50;99648.00;;;4.20;100.00
10638;BME280;47007;49.252;8.904;2024-03-08T02:53:32;99618.00;;;4.05;100.00
10638;BME280;47007;49.252;8.904;2024-03-08T02:54:14;99642.75;;;4.20;100.00
10638;BME280;47007;49.252;8.904;2024-03-08T02:54:56;99627.31;;;4.17;100.00
10638;BME280;47007;49.252;8.904;2024-03-08T02:55:38;99642.75;;;4.20;100.00
10638;BME280;47007;49.252;8.904;2024-03-08T02:56:20;99651.44;;;4.20;100.00
10638;BME280;47007;49.252;8.904;2024-03-08T02:57:03;99646.34;;;4.19;100.00
10638;BME280;47007;49.252;8.904;2024-03-08T02:57:45;99639.19;;;4.11;100.00
10638;BME280;47007;49.252;8.904;2024-03-08T02:58:28;99632.63;;;4.07;100.00
10638;BME280;47007;49.252;8.904;2024-03-08T02:59:10;99638.09;;;4.14;100.00
10638;BME280;47007;49.252;8.904;2024-03-08T02:59:55;99632.91;;;4.04;100.00
10638;BME280;47007;49.252;8.904;2024-03-08T03:00:37;99621.88;;;4.01;100.00
10638;BME280;47007;49.252;8.904;2024-03-08T03:01:21;99641.41;;;4.16;100.00
10638;BME280;47007;49.252;8.904;2024-03-08T03:02:03;99628.63;;;4.03;100.00
10638;BME280;47007;49.252;8.904;2024-03-08T03:02:45;99643.72;;;4.19;100.00
10638;BME280;47007;49.252;8.904;2024-03-08T03:03:27;99639.47;;;4.18;100.00
10638;BME280;47007;49.252;8.904;2024-03-08T03:04:09;99643.19;;;4.15;100.00
10638;BME280;47007;49.252;8.904;2024-03-08T03:04:51;99613.19;;;4.00;100.00
10638;BME280;47007;49.252;8.904;2024-03-08T03:05:33;99637.25;;;4.13;100.00
10638;BME280;47007;49.252;8.904;2024-03-08T03:06:15;99628.34;;;4.06;100.00
10638;BME280;47007;49.252;8.904;2024-03-08T03:06:57;99608.81;;;3.91;100.00
10638;BME280;47007;49.252;8.904;2024-03-08T03:07:39;99626.00;;;4.03;100.00
10638;BME280;47007;49.252;8.904;2024-03-08T03:08:21;99633.81;;;4.13;100.00
10638;BME280;47007;49.252;8.904;2024-03-08T03:09:03;99639.19;;;4.11;100.00
10638;BME280;47007;49.252;8.904;2024-03-08T03:09:47;99635.47;;;4.14;100.00
10638;BME280;47007;49.252;8.904;2024-03-08T03:10:29;99635.47;;;4.14;100.00
10638;BME280;47007;49.252;8.904;2024-03-08T03:11:11;99634.22;;;4.18;100.00
10638;BME280;47007;49.252;8.904;2024-03-08T03:11:54;99633.91;;;4.21;100.00
10638;BME280;47007;49.252;8.904;2024-03-08T03:12:36;99629.66;;;4.20;100.00
10638;BME280;47007;49.252;8.904;2024-03-08T03:13:19;99608.34;;;4.05;100.00
10638;BME280;47007;49.252;8.904;2024-03-08T03:14:01;99619.59;;;4.15;100.00
10638;BME280;47007;49.252;8.904;2024-03-08T03:14:42;99625.81;;;4.14;100.00
10638;BME280;47007;49.252;8.904;2024-03-08T03:15:24;99597.44;;;4.00;100.00
10638;BME280;47007;49.252;8.904;2024-03-08T03:16:08;99626.63;;;4.15;100.00
10638;BME280;47007;49.252;8.904;2024-03-08T03:16:51;99628.84;;;4.10;100.00
10638;BME280;47007;49.252;8.904;2024-03-08T03:17:33;99618.97;;;4.04;100.00
10638;BME280;47007;49.252;8.904;2024-03-08T03:18:15;99617.53;;;4.09;100.00
10638;BME280;47007;49.252;8.904;2024-03-08T03:18:57;99582.50;;;3.83;100.00
10638;BME280;47007;49.252;8.904;2024-03-08T03:19:41;99604.41;;;3.91;100.00
10638;BME280;47007;49.252;8.904;2024-03-08T03:20:24;99619.50;;;4.07;100.00
10638;BME280;47007;49.252;8.904;2024-03-08T03:21:08;99619.66;;;4.06;100.00
10638;BME280;47007;49.252;8.904;2024-03-08T03:21:51;99617.53;;;4.09;100.00
10638;BME280;47007;49.252;8.904;2024-03-08T03:22:34;99600.22;;;3.98;100.00
10638;BME280;47007;49.252;8.904;2024-03-08T03:23:16;99619.72;;;4.14;100.00
10638;BME280;47007;49.252;8.904;2024-03-08T03:24:02;99620.56;;;4.14;100.00
10638;BME280;47007;49.252;8.904;2024-03-08T03:24:45;99618.06;;;4.13;100.00
10638;BME280;47007;49.252;8.904;2024-03-08T03:25:33;99613.94;;;4.10;100.00
10638;BME280;47007;49.252;8.904;2024-03-08T03:26:17;99602.16;;;3.96;100.00
10638;BME280;47007;49.252;8.904;2024-03-08T03:27:00;99596.91;;;3.96;100.00
10638;BME280;47007;49.252;8.904;2024-03-08T03:27:41;99585.06;;;3.92;100.00
10638;BME280;47007;49.252;8.904;2024-03-08T03:28:23;99617.72;;;4.08;100.00
10638;BME280;47007;49.252;8.904;2024-03-08T03:29:05;99602.69;;;4.00;100.00
10638;BME280;47007;49.252;8.904;2024-03-08T03:29:50;99623.38;;;4.03;100.00
10638;BME280;47007;49.252;8.904;2024-03-08T03:30:33;99619.53;;;3.97;100.00
10638;BME280;47007;49.252;8.904;2024-03-08T03:31:15;99620.69;;;3.95;100.00
10638;BME280;47007;49.252;8.904;2024-03-08T03:31:57;99597.00;;;3.77;100.00
10638;BME280;47007;49.252;8.904;2024-03-08T03:32:39;99618.19;;;3.93;100.00
10638;BME280;47007;49.252;8.904;2024-03-08T03:33:28;99620.34;;;3.98;100.00
10638;BME280;47007;49.252;8.904;2024-03-08T03:34:10;99615.13;;;3.98;100.00
10638;BME280;47007;49.252;8.904;2024-03-08T03:34:52;99613.78;;;3.94;100.00
10638;BME280;47007;49.252;8.904;2024-03-08T03:35:34;99604.97;;;3.85;100.00
10638;BME280;47007;49.252;8.904;2024-03-08T03:36:18;99589.28;;;3.76;100.00
10638;BME280;47007;49.252;8.904;2024-03-08T03:37:00;99614.78;;;3.83;100.00
10638;BME280;47007;49.252;8.904;2024-03-08T03:37:44;99596.78;;;3.71;100.00
10638;BME280;47007;49.252;8.904;2024-03-08T03:38:32;99597.44;;;3.73;100.00
10638;BME280;47007;49.252;8.904;2024-03-08T03:39:16;99622.34;;;3.86;100.00
10638;BME280;47007;49.252;8.904;2024-03-08T03:39:58;99592.66;;;3.68;100.00
10638;BME280;47007;49.252;8.904;2024-03-08T03:40:40;99616.97;;;3.88;100.00
10638;BME280;47007;49.252;8.904;2024-03-08T03:41:22;99618.47;;;3.90;100.00
10638;BME280;47007;49.252;8.904;2024-03-08T03:42:05;99615.72;;;3.92;100.00
10638;BME280;47007;49.252;8.904;2024-03-08T03:42:47;99591.50;;;3.80;100.00
10638;BME280;47007;49.252;8.904;2024-03-08T03:43:28;99589.69;;;3.81;100.00
10638;BME280;47007;49.252;8.904;2024-03-08T03:44:10;99616.53;;;3.92;100.00
10638;BME280;47007;49.252;8.904;2024-03-08T03:44:52;99602.75;;;3.90;100.00
10638;BME280;47007;49.252;8.904;2024-03-08T03:45:34;99572.19;;;3.72;100.00